SAS932 KLAX-EKCH
Flight info
| Callsign | SAS932 |
|---|---|
| Flight time | N/A |
| Altitude | 35000 |
| Route | ORCKA5 LAS Q70 BLIPP Q842 WINEN DCT DTA DCT TCH DCT GGW DCT DURUR DCT 55N101W 60N094W 65N084W 69N070W/M081F350 DCT ADSAM DCT 73N040W 71N020W 68N010W 64N000E/N0465F350 DCT APTEK DCT AMSEV DCT TESPI |
| Aircraft | A333/H-SDE3GHIJ2J3J5M1RVWXY/LB2D1 |
Departure
| Time | 2026-04-22 00:29 |
|---|---|
| Airport | Los Angeles International Airport (KLAX) |
Arrival
| Time | N/A |
|---|---|
| Airport | Copenhagen Kastrup Airport (EKCH) |
| Time | Latitude | Longitude | Altitude | Speed | Heading |
|---|---|---|---|---|---|
| 2026-04-21 23:48 | 33.94021 | -118.41069 | 97 ft | 0 kts | 83° |
| 2026-04-22 00:08 | 33.94020 | -118.41076 | 99 ft | 2 kts | 83° |
| 2026-04-22 00:08 | 33.94018 | -118.41099 | 95 ft | 3 kts | 83° |
| 2026-04-22 00:09 | 33.94016 | -118.41124 | 94 ft | 3 kts | 83° |
| 2026-04-22 00:09 | 33.94014 | -118.41145 | 99 ft | 3 kts | 85° |
| 2026-04-22 00:09 | 33.94015 | -118.41168 | 97 ft | 3 kts | 115° |
| 2026-04-22 00:09 | 33.94026 | -118.41184 | 96 ft | 3 kts | 158° |
| 2026-04-22 00:10 | 33.94044 | -118.41190 | 98 ft | 3 kts | 176° |
| 2026-04-22 00:10 | 33.94064 | -118.41191 | 96 ft | 2 kts | 175° |
| 2026-04-22 00:10 | 33.94069 | -118.41191 | 97 ft | 2 kts | 173° |
| 2026-04-22 00:15 | 33.94060 | -118.41190 | 96 ft | 3 kts | 173° |
| 2026-04-22 00:15 | 33.94039 | -118.41187 | 97 ft | 3 kts | 173° |
| 2026-04-22 00:15 | 33.93998 | -118.41181 | 98 ft | 7 kts | 173° |
| 2026-04-22 00:16 | 33.93948 | -118.41174 | 97 ft | 7 kts | 173° |
| 2026-04-22 00:16 | 33.93888 | -118.41165 | 97 ft | 9 kts | 173° |
| 2026-04-22 00:16 | 33.93825 | -118.41156 | 98 ft | 9 kts | 173° |
| 2026-04-22 00:16 | 33.93775 | -118.41135 | 99 ft | 6 kts | 133° |
| 2026-04-22 00:17 | 33.93769 | -118.41064 | 99 ft | 9 kts | 83° |
| 2026-04-22 00:17 | 33.93779 | -118.40970 | 98 ft | 15 kts | 83° |
| 2026-04-22 00:17 | 33.93794 | -118.40825 | 98 ft | 17 kts | 83° |
| 2026-04-22 00:17 | 33.93808 | -118.40683 | 98 ft | 17 kts | 83° |
| 2026-04-22 00:18 | 33.93822 | -118.40549 | 101 ft | 16 kts | 83° |
| 2026-04-22 00:18 | 33.93835 | -118.40420 | 100 ft | 15 kts | 83° |
| 2026-04-22 00:18 | 33.93847 | -118.40301 | 99 ft | 14 kts | 83° |
| 2026-04-22 00:18 | 33.93859 | -118.40187 | 100 ft | 13 kts | 83° |
| 2026-04-22 00:19 | 33.93871 | -118.40075 | 101 ft | 16 kts | 83° |
| 2026-04-22 00:19 | 33.93884 | -118.39938 | 102 ft | 16 kts | 83° |
| 2026-04-22 00:19 | 33.93898 | -118.39802 | 102 ft | 16 kts | 83° |
| 2026-04-22 00:19 | 33.93912 | -118.39668 | 100 ft | 16 kts | 83° |
| 2026-04-22 00:20 | 33.93925 | -118.39537 | 102 ft | 17 kts | 83° |
| 2026-04-22 00:20 | 33.93940 | -118.39396 | 101 ft | 17 kts | 83° |
| 2026-04-22 00:20 | 33.93955 | -118.39254 | 101 ft | 17 kts | 83° |
| 2026-04-22 00:20 | 33.93969 | -118.39119 | 99 ft | 16 kts | 83° |
| 2026-04-22 00:21 | 33.93982 | -118.38991 | 98 ft | 15 kts | 83° |
| 2026-04-22 00:21 | 33.93994 | -118.38866 | 97 ft | 16 kts | 83° |
| 2026-04-22 00:21 | 33.94010 | -118.38707 | 100 ft | 20 kts | 83° |
| 2026-04-22 00:21 | 33.94026 | -118.38552 | 101 ft | 18 kts | 83° |
| 2026-04-22 00:22 | 33.94041 | -118.38408 | 103 ft | 17 kts | 83° |
| 2026-04-22 00:22 | 33.94055 | -118.38269 | 102 ft | 17 kts | 83° |
| 2026-04-22 00:22 | 33.94070 | -118.38129 | 97 ft | 17 kts | 83° |
| 2026-04-22 00:22 | 33.94075 | -118.38028 | 97 ft | 7 kts | 109° |
| 2026-04-22 00:23 | 33.94072 | -118.38023 | 97 ft | 0 kts | 126° |
| 2026-04-22 00:26 | 33.94069 | -118.38021 | 97 ft | 2 kts | 128° |
| 2026-04-22 00:27 | 33.94058 | -118.38010 | 99 ft | 3 kts | 145° |
| 2026-04-22 00:27 | 33.94028 | -118.37996 | 98 ft | 5 kts | 167° |
| 2026-04-22 00:27 | 33.94000 | -118.38001 | 100 ft | 3 kts | 203° |
| 2026-04-22 00:27 | 33.93985 | -118.38020 | 99 ft | 3 kts | 236° |
| 2026-04-22 00:28 | 33.93981 | -118.38036 | 100 ft | 2 kts | 257° |
| 2026-04-22 00:28 | 33.93978 | -118.38071 | 97 ft | 7 kts | 264° |
| 2026-04-22 00:28 | 33.93955 | -118.38302 | 102 ft | 55 kts | 263° |
| 2026-04-22 00:28 | 33.93886 | -118.38988 | 100 ft | 109 kts | 263° |
| 2026-04-22 00:29 | 33.93771 | -118.40100 | 117 ft | 156 kts | 263° |
| 2026-04-22 00:29 | 33.93620 | -118.41447 | 596 ft | 167 kts | 262° |
| 2026-04-22 00:29 | 33.93450 | -118.42835 | 1348 ft | 168 kts | 262° |
| 2026-04-22 00:29 | 33.93258 | -118.44251 | 1996 ft | 172 kts | 261° |
| 2026-04-22 00:30 | 33.93042 | -118.45663 | 2534 ft | 171 kts | 260° |
| 2026-04-22 00:30 | 33.92806 | -118.47072 | 2970 ft | 176 kts | 259° |
| 2026-04-22 00:30 | 33.92566 | -118.48587 | 3188 ft | 193 kts | 259° |
| 2026-04-22 00:30 | 33.92311 | -118.50247 | 3415 ft | 211 kts | 259° |
| 2026-04-22 00:31 | 33.92034 | -118.52059 | 3620 ft | 226 kts | 257° |
| 2026-04-22 00:31 | 33.91547 | -118.53910 | 3880 ft | 240 kts | 249° |
| 2026-04-22 00:31 | 33.90900 | -118.55815 | 4295 ft | 249 kts | 248° |
| 2026-04-22 00:31 | 33.90233 | -118.57744 | 4923 ft | 250 kts | 248° |
| 2026-04-22 00:32 | 33.89574 | -118.59676 | 5558 ft | 250 kts | 248° |
| 2026-04-22 00:32 | 33.88787 | -118.61544 | 6168 ft | 251 kts | 236° |
| 2026-04-22 00:32 | 33.87606 | -118.63103 | 6754 ft | 255 kts | 218° |
| 2026-04-22 00:32 | 33.86007 | -118.64025 | 7356 ft | 260 kts | 195° |
| 2026-04-22 00:33 | 33.84187 | -118.64010 | 7960 ft | 269 kts | 169° |
| 2026-04-22 00:33 | 33.82516 | -118.62920 | 8531 ft | 284 kts | 141° |
| 2026-04-22 00:33 | 33.81440 | -118.60878 | 9086 ft | 301 kts | 110° |
| 2026-04-22 00:33 | 33.81345 | -118.58329 | 9578 ft | 315 kts | 78° |
| 2026-04-22 00:34 | 33.82318 | -118.55961 | 10066 ft | 322 kts | 49° |
| 2026-04-22 00:34 | 33.83910 | -118.53996 | 10333 ft | 335 kts | 41° |
| 2026-04-22 00:34 | 33.85671 | -118.52061 | 10539 ft | 350 kts | 41° |
| 2026-04-22 00:34 | 33.87476 | -118.50062 | 10737 ft | 364 kts | 41° |
| 2026-04-22 00:35 | 33.89388 | -118.47916 | 10946 ft | 379 kts | 41° |
| 2026-04-22 00:35 | 33.91331 | -118.45735 | 11142 ft | 393 kts | 41° |
| 2026-04-22 00:35 | 33.93249 | -118.43316 | 11361 ft | 407 kts | 51° |
| 2026-04-22 00:35 | 33.94922 | -118.40532 | 11743 ft | 415 kts | 55° |
| 2026-04-22 00:36 | 33.96555 | -118.37634 | 12216 ft | 420 kts | 55° |
| 2026-04-22 00:36 | 33.98221 | -118.34661 | 12683 ft | 425 kts | 55° |
| 2026-04-22 00:36 | 33.99888 | -118.31696 | 13119 ft | 431 kts | 55° |
| 2026-04-22 00:36 | 34.01585 | -118.28690 | 13614 ft | 435 kts | 54° |
| 2026-04-22 00:37 | 34.03296 | -118.25664 | 14080 ft | 439 kts | 54° |
| 2026-04-22 00:37 | 34.05032 | -118.22597 | 14399 ft | 446 kts | 54° |
| 2026-04-22 00:37 | 34.06784 | -118.19501 | 14804 ft | 449 kts | 54° |
| 2026-04-22 00:37 | 34.08550 | -118.16378 | 15245 ft | 452 kts | 54° |
| 2026-04-22 00:38 | 34.10307 | -118.13272 | 15667 ft | 455 kts | 54° |
| 2026-04-22 00:38 | 34.12098 | -118.10100 | 16108 ft | 459 kts | 54° |
| 2026-04-22 00:38 | 34.13900 | -118.06906 | 16518 ft | 462 kts | 54° |
| 2026-04-22 00:38 | 34.15717 | -118.03682 | 16917 ft | 465 kts | 54° |
| 2026-04-22 00:39 | 34.17543 | -118.00438 | 17327 ft | 469 kts | 54° |
| 2026-04-22 00:39 | 34.19384 | -117.97166 | 17760 ft | 471 kts | 54° |
| 2026-04-22 00:39 | 34.21230 | -117.93882 | 18159 ft | 474 kts | 54° |
| 2026-04-22 00:39 | 34.23086 | -117.90577 | 18529 ft | 477 kts | 54° |
| 2026-04-22 00:40 | 34.24953 | -117.87250 | 18850 ft | 480 kts | 54° |
| 2026-04-22 00:40 | 34.26830 | -117.83901 | 19195 ft | 482 kts | 54° |
| 2026-04-22 00:40 | 34.28716 | -117.80535 | 19525 ft | 485 kts | 54° |
| 2026-04-22 00:40 | 34.30609 | -117.77150 | 19928 ft | 486 kts | 54° |
| 2026-04-22 00:41 | 34.32505 | -117.73756 | 20259 ft | 489 kts | 54° |
| 2026-04-22 00:41 | 34.34396 | -117.70372 | 20510 ft | 493 kts | 54° |
| 2026-04-22 00:41 | 34.36371 | -117.66967 | 20870 ft | 494 kts | 52° |
| 2026-04-22 00:41 | 34.38392 | -117.63585 | 21185 ft | 496 kts | 52° |
| 2026-04-22 00:42 | 34.40429 | -117.60187 | 21493 ft | 499 kts | 52° |
| 2026-04-22 00:42 | 34.42470 | -117.56777 | 21770 ft | 501 kts | 52° |
| 2026-04-22 00:42 | 34.44519 | -117.53346 | 22112 ft | 504 kts | 52° |
| 2026-04-22 00:42 | 34.46571 | -117.49903 | 22449 ft | 506 kts | 52° |
| 2026-04-22 00:43 | 34.48637 | -117.46431 | 22770 ft | 508 kts | 52° |
| 2026-04-22 00:43 | 34.50008 | -117.44126 | 22994 ft | 510 kts | 52° |
| 2026-04-22 00:46 | 34.52880 | -117.39290 | 23450 ft | 513 kts | 52° |
| 2026-04-22 00:46 | 34.54971 | -117.35766 | 23717 ft | 516 kts | 52° |
| 2026-04-22 00:46 | 34.57070 | -117.32224 | 23964 ft | 518 kts | 52° |
| 2026-04-22 00:47 | 34.59177 | -117.28666 | 24219 ft | 521 kts | 52° |
| 2026-04-22 00:47 | 34.61294 | -117.25086 | 24472 ft | 523 kts | 52° |
| 2026-04-22 00:47 | 34.63396 | -117.21534 | 24709 ft | 525 kts | 52° |
| 2026-04-22 00:47 | 34.65805 | -117.18132 | 24881 ft | 524 kts | 40° |
| 2026-04-22 00:48 | 34.68549 | -117.15335 | 25135 ft | 521 kts | 33° |
| 2026-04-22 00:48 | 34.71473 | -117.12734 | 25405 ft | 522 kts | 32° |
| 2026-04-22 00:48 | 34.74438 | -117.10151 | 25629 ft | 524 kts | 31° |
| 2026-04-22 00:48 | 34.77450 | -117.07537 | 25877 ft | 526 kts | 31° |
| 2026-04-22 00:49 | 34.80437 | -117.04948 | 26115 ft | 529 kts | 32° |
| 2026-04-22 00:49 | 34.83421 | -117.02379 | 26321 ft | 532 kts | 31° |
| 2026-04-22 00:49 | 34.86448 | -116.99778 | 26571 ft | 534 kts | 31° |
| 2026-04-22 00:49 | 34.89491 | -116.97164 | 26797 ft | 536 kts | 31° |
| 2026-04-22 00:50 | 34.92540 | -116.94543 | 27051 ft | 538 kts | 32° |
| 2026-04-22 00:50 | 34.95446 | -116.91619 | 27283 ft | 544 kts | 42° |
| 2026-04-22 00:50 | 34.98013 | -116.88195 | 27514 ft | 548 kts | 48° |
| 2026-04-22 00:50 | 35.00443 | -116.84607 | 27751 ft | 550 kts | 50° |
| 2026-04-22 00:51 | 35.02845 | -116.80969 | 28030 ft | 551 kts | 50° |
| 2026-04-22 00:51 | 35.05238 | -116.77313 | 28216 ft | 553 kts | 50° |
| 2026-04-22 00:51 | 35.07642 | -116.73630 | 28452 ft | 555 kts | 50° |
| 2026-04-22 00:51 | 35.10051 | -116.69931 | 28698 ft | 557 kts | 51° |
| 2026-04-22 00:52 | 35.12464 | -116.66220 | 28895 ft | 559 kts | 51° |
| 2026-04-22 00:52 | 35.14886 | -116.62490 | 29166 ft | 560 kts | 51° |
| 2026-04-22 00:52 | 35.17304 | -116.58762 | 29528 ft | 559 kts | 51° |
| 2026-04-22 00:52 | 35.19722 | -116.55031 | 29825 ft | 559 kts | 51° |
| 2026-04-22 00:53 | 35.22138 | -116.51297 | 29987 ft | 562 kts | 51° |
| 2026-04-22 00:53 | 35.24568 | -116.47538 | 30203 ft | 563 kts | 51° |
| 2026-04-22 00:53 | 35.26998 | -116.43777 | 30442 ft | 563 kts | 51° |
| 2026-04-22 00:53 | 35.29417 | -116.40026 | 30718 ft | 562 kts | 51° |
| 2026-04-22 00:54 | 35.31836 | -116.36273 | 30978 ft | 561 kts | 51° |
| 2026-04-22 00:54 | 35.34250 | -116.32523 | 31222 ft | 561 kts | 51° |
| 2026-04-22 00:54 | 35.36666 | -116.28767 | 31442 ft | 561 kts | 51° |
| 2026-04-22 00:54 | 35.39084 | -116.25008 | 31632 ft | 561 kts | 51° |
| 2026-04-22 00:55 | 35.41500 | -116.21248 | 31819 ft | 562 kts | 51° |
| 2026-04-22 00:55 | 35.43888 | -116.17525 | 32032 ft | 562 kts | 51° |
| 2026-04-22 00:55 | 35.48718 | -116.09981 | 32510 ft | 562 kts | 51° |
| 2026-04-22 00:56 | 35.51139 | -116.06191 | 32746 ft | 562 kts | 51° |
| 2026-04-22 00:56 | 35.53548 | -116.02416 | 32963 ft | 561 kts | 51° |
| 2026-04-22 00:56 | 35.55952 | -115.98644 | 33184 ft | 561 kts | 51° |
| 2026-04-22 00:56 | 35.58351 | -115.94876 | 33368 ft | 561 kts | 51° |
| 2026-04-22 00:57 | 35.60741 | -115.91118 | 33694 ft | 557 kts | 51° |
| 2026-04-22 00:57 | 35.63129 | -115.87359 | 34001 ft | 555 kts | 51° |
| 2026-04-22 00:57 | 35.65503 | -115.83618 | 34170 ft | 555 kts | 51° |
| 2026-04-22 00:57 | 35.67872 | -115.79880 | 34324 ft | 555 kts | 51° |
| 2026-04-22 00:58 | 35.70246 | -115.76130 | 34510 ft | 554 kts | 51° |
| 2026-04-22 00:58 | 35.72613 | -115.72389 | 34675 ft | 554 kts | 51° |
| 2026-04-22 00:58 | 35.74948 | -115.68693 | 34833 ft | 553 kts | 51° |
| 2026-04-22 00:58 | 35.77333 | -115.64915 | 34921 ft | 548 kts | 51° |
| 2026-04-22 00:59 | 35.81930 | -115.57619 | 34933 ft | 543 kts | 52° |
| 2026-04-22 00:59 | 35.86594 | -115.50203 | 34914 ft | 551 kts | 52° |
| 2026-04-22 01:00 | 35.91315 | -115.42679 | 34916 ft | 558 kts | 52° |
| 2026-04-22 01:00 | 35.96092 | -115.35050 | 34887 ft | 564 kts | 52° |
| 2026-04-22 01:01 | 36.00878 | -115.27390 | 34880 ft | 562 kts | 52° |
| 2026-04-22 01:01 | 36.05631 | -115.19764 | 34852 ft | 560 kts | 52° |
| 2026-04-22 01:02 | 36.10979 | -115.12826 | 34838 ft | 557 kts | 40° |
| 2026-04-22 01:02 | 36.16775 | -115.06432 | 34790 ft | 558 kts | 39° |
| 2026-04-22 01:03 | 36.22648 | -115.00140 | 34752 ft | 558 kts | 39° |
| 2026-04-22 01:03 | 36.28514 | -114.93848 | 34778 ft | 557 kts | 39° |
| 2026-04-22 01:04 | 36.34363 | -114.87532 | 34757 ft | 557 kts | 39° |
| 2026-04-22 01:04 | 36.40200 | -114.81201 | 34737 ft | 557 kts | 39° |
| 2026-04-22 01:05 | 36.45998 | -114.74898 | 34742 ft | 557 kts | 40° |
| 2026-04-22 01:05 | 36.51829 | -114.68548 | 34708 ft | 557 kts | 40° |
| 2026-04-22 01:06 | 36.57657 | -114.62190 | 34706 ft | 557 kts | 40° |
| 2026-04-22 01:06 | 36.63479 | -114.55825 | 34706 ft | 557 kts | 40° |
| 2026-04-22 01:07 | 36.69300 | -114.49455 | 34710 ft | 557 kts | 39° |
| 2026-04-22 01:07 | 36.75610 | -114.43927 | 34719 ft | 554 kts | 31° |